createdAt,value
2023-05-10T00:00:11.368Z,13
2023-05-10T00:01:12.293Z,12
2023-05-10T00:02:13.384Z,13
2023-05-10T00:03:14.440Z,13
2023-05-10T00:04:15.395Z,13
2023-05-10T00:05:16.342Z,13
2023-05-10T00:06:17.371Z,13
2023-05-10T00:07:18.386Z,13
2023-05-10T00:08:19.276Z,13
2023-05-10T00:09:20.429Z,13
2023-05-10T00:10:21.279Z,13
2023-05-10T00:11:23.217Z,13
2023-05-10T00:12:23.308Z,13
2023-05-10T00:13:24.440Z,12
2023-05-10T00:14:25.309Z,12
2023-05-10T00:15:26.369Z,12
2023-05-10T00:16:27.337Z,12
2023-05-10T00:17:28.342Z,12
2023-05-10T00:18:29.388Z,12
2023-05-10T00:19:30.329Z,12
2023-05-10T00:20:31.393Z,12
2023-05-10T00:21:32.369Z,13
2023-05-10T00:22:33.351Z,12
2023-05-10T00:23:34.330Z,13
2023-05-10T00:24:35.311Z,12
2023-05-10T00:25:36.370Z,13
2023-05-10T00:26:37.330Z,12
2023-05-10T00:27:38.374Z,12
2023-05-10T00:28:39.361Z,12
2023-05-10T00:29:40.375Z,12
2023-05-10T00:30:41.350Z,12
2023-05-10T00:31:42.375Z,12
2023-05-10T00:32:43.404Z,12
2023-05-10T00:33:44.339Z,12
2023-05-10T00:34:45.330Z,12
2023-05-10T00:35:46.376Z,12
2023-05-10T00:36:47.332Z,13
2023-05-10T00:37:48.354Z,13
2023-05-10T00:38:49.350Z,13
2023-05-10T00:39:50.343Z,13
2023-05-10T00:40:51.350Z,13
2023-05-10T00:41:52.388Z,13
2023-05-10T00:42:53.363Z,13
2023-05-10T00:43:54.403Z,13
2023-05-10T00:44:55.297Z,12
2023-05-10T00:45:56.483Z,12
2023-05-10T00:46:57.433Z,12
2023-05-10T00:47:58.307Z,13
2023-05-10T00:48:59.370Z,13
2023-05-10T00:50:00.390Z,13
2023-05-10T00:51:01.451Z,13
2023-05-10T00:52:02.381Z,13
2023-05-10T00:53:03.308Z,13
2023-05-10T00:54:04.354Z,14
2023-05-10T00:55:05.405Z,13
2023-05-10T00:56:06.375Z,12
2023-05-10T00:57:07.350Z,12
2023-05-10T00:58:08.433Z,13
2023-05-10T00:59:09.401Z,13
2023-05-10T01:00:10.370Z,13
2023-05-10T01:01:11.360Z,13
2023-05-10T01:02:12.486Z,13
2023-05-10T01:03:13.360Z,13
2023-05-10T01:04:14.337Z,13
2023-05-10T01:05:15.501Z,13
2023-05-10T01:06:16.376Z,12
2023-05-10T01:07:17.413Z,12
2023-05-10T01:08:18.452Z,13
2023-05-10T01:09:19.458Z,13
2023-05-10T01:10:20.357Z,12
2023-05-10T01:11:21.315Z,13
2023-05-10T01:12:22.437Z,13
2023-05-10T01:13:23.348Z,12
2023-05-10T01:14:24.359Z,12
2023-05-10T01:15:25.415Z,12
2023-05-10T01:16:26.481Z,12
2023-05-10T01:17:27.509Z,12
2023-05-10T01:18:28.334Z,12
2023-05-10T01:19:29.414Z,13
2023-05-10T01:20:30.438Z,12
2023-05-10T01:21:31.403Z,12
2023-05-10T01:22:32.435Z,12
2023-05-10T01:23:33.389Z,12
2023-05-10T01:24:34.735Z,13
2023-05-10T01:25:35.357Z,12
2023-05-10T01:26:36.354Z,13
2023-05-10T01:27:37.356Z,12
2023-05-10T01:28:38.337Z,13
2023-05-10T01:29:39.430Z,12
2023-05-10T01:30:40.354Z,12
2023-05-10T01:31:41.444Z,12
2023-05-10T01:32:42.414Z,12
2023-05-10T01:36:43.423Z,13
2023-05-10T01:37:44.324Z,13
2023-05-10T01:38:45.404Z,13
2023-05-10T01:39:46.401Z,13
2023-05-10T01:40:47.421Z,13
2023-05-10T01:41:48.382Z,13
2023-05-10T01:42:49.362Z,13
2023-05-10T01:43:50.380Z,13
2023-05-10T01:44:51.446Z,12
2023-05-10T01:45:52.443Z,12
2023-05-10T01:46:53.415Z,13
2023-05-10T01:47:54.802Z,12
2023-05-10T01:48:55.382Z,12
2023-05-10T01:49:56.383Z,13
2023-05-10T01:50:57.399Z,13
2023-05-10T01:51:58.356Z,12
2023-05-10T01:52:59.408Z,12
2023-05-10T01:54:00.388Z,12
2023-05-10T01:55:01.420Z,12
2023-05-10T01:56:02.401Z,12
2023-05-10T01:57:03.402Z,12
2023-05-10T01:58:04.397Z,13
2023-05-10T01:59:05.398Z,13
2023-05-10T02:00:06.566Z,13
2023-05-10T02:01:07.396Z,13
2023-05-10T02:02:08.398Z,12
2023-05-10T02:03:09.511Z,12
2023-05-10T02:04:10.429Z,12
2023-05-10T02:05:11.381Z,13
2023-05-10T02:06:12.376Z,13
2023-05-10T02:07:13.327Z,13
2023-05-10T02:08:14.449Z,12
2023-05-10T02:09:15.439Z,13
2023-05-10T02:10:16.504Z,13
2023-05-10T02:11:17.466Z,12
2023-05-10T02:12:18.380Z,12
2023-05-10T02:13:19.368Z,12
2023-05-10T02:14:20.449Z,12
2023-05-10T02:15:21.490Z,12
2023-05-10T02:16:22.395Z,14
2023-05-10T02:17:23.420Z,13
2023-05-10T02:18:24.423Z,13
2023-05-10T02:19:25.471Z,13
2023-05-10T02:20:26.401Z,13
2023-05-10T02:21:27.350Z,13
2023-05-10T02:22:28.449Z,13
2023-05-10T02:23:29.405Z,13
2023-05-10T02:24:30.338Z,13
2023-05-10T02:25:31.460Z,13
2023-05-10T02:26:32.378Z,13
2023-05-10T02:27:33.409Z,14
2023-05-10T02:28:34.379Z,13
2023-05-10T02:29:35.405Z,13
2023-05-10T02:30:36.458Z,13
2023-05-10T02:31:37.578Z,13
2023-05-10T02:32:38.446Z,12
2023-05-10T02:33:39.431Z,13
2023-05-10T02:34:40.459Z,13
2023-05-10T02:35:41.446Z,14
2023-05-10T02:36:42.440Z,13
2023-05-10T02:37:43.402Z,13
2023-05-10T02:38:44.399Z,14
2023-05-10T02:39:45.400Z,13
2023-05-10T02:40:46.368Z,13
2023-05-10T02:41:47.484Z,13
2023-05-10T02:42:48.418Z,13
2023-05-10T02:43:49.460Z,13
2023-05-10T02:44:50.424Z,13
2023-05-10T02:45:51.535Z,13
2023-05-10T02:46:52.391Z,13
2023-05-10T02:47:53.477Z,13
2023-05-10T02:48:54.410Z,14
2023-05-10T02:49:55.408Z,13
2023-05-10T02:50:56.442Z,13
2023-05-10T02:51:57.381Z,13
2023-05-10T02:52:58.484Z,14
2023-05-10T02:53:59.442Z,14
2023-05-10T02:55:00.445Z,14
2023-05-10T02:56:01.519Z,13
2023-05-10T02:57:02.461Z,14
2023-05-10T02:58:03.452Z,13
2023-05-10T02:59:04.397Z,13
2023-05-10T03:00:05.537Z,13
2023-05-10T03:01:06.537Z,14
2023-05-10T03:02:07.402Z,13
2023-05-10T03:03:08.414Z,13
2023-05-10T03:04:09.408Z,13
2023-05-10T03:05:10.439Z,13
2023-05-10T03:06:11.401Z,13
2023-05-10T03:07:12.489Z,14
2023-05-10T03:08:13.461Z,13
2023-05-10T03:09:14.422Z,13
2023-05-10T03:10:15.623Z,12
2023-05-10T03:11:16.489Z,12
2023-05-10T03:12:17.592Z,13
2023-05-10T03:13:18.539Z,13
2023-05-10T03:14:19.483Z,13
2023-05-10T03:15:20.466Z,14
2023-05-10T03:16:21.482Z,14
2023-05-10T03:17:22.401Z,14
2023-05-10T03:18:23.446Z,13
2023-05-10T03:19:24.455Z,14
2023-05-10T03:20:25.525Z,14
2023-05-10T03:21:26.444Z,13
2023-05-10T03:22:27.478Z,13
2023-05-10T03:23:28.461Z,13
2023-05-10T03:24:29.471Z,13
2023-05-10T03:25:30.464Z,13
2023-05-10T03:26:31.371Z,13
2023-05-10T03:27:32.403Z,14
2023-05-10T03:28:33.422Z,13
2023-05-10T03:29:34.470Z,13
2023-05-10T03:30:35.414Z,14
2023-05-10T03:31:36.602Z,14
2023-05-10T03:32:37.516Z,15
2023-05-10T03:33:38.423Z,13
2023-05-10T03:34:39.486Z,14
2023-05-10T03:35:40.392Z,15
2023-05-10T03:36:41.449Z,14
2023-05-10T03:37:42.430Z,14
2023-05-10T03:38:43.520Z,14
2023-05-10T03:39:44.476Z,14
2023-05-10T03:40:45.461Z,14
2023-05-10T03:41:46.482Z,14
2023-05-10T03:42:47.426Z,15
2023-05-10T03:43:48.449Z,15
2023-05-10T03:44:49.454Z,14
2023-05-10T03:45:50.477Z,14
2023-05-10T03:46:51.509Z,14
2023-05-10T03:47:52.424Z,15
2023-05-10T03:48:53.482Z,14
2023-05-10T03:49:54.472Z,15
2023-05-10T03:50:55.504Z,13
2023-05-10T03:51:56.443Z,15
2023-05-10T03:52:57.475Z,14
2023-05-10T03:53:58.464Z,15
2023-05-10T03:54:59.450Z,14
2023-05-10T03:56:00.425Z,13
2023-05-10T03:57:01.523Z,13
2023-05-10T03:58:02.582Z,14
2023-05-10T03:59:03.526Z,14
2023-05-10T04:00:04.756Z,15
2023-05-10T04:01:05.492Z,15
2023-05-10T04:02:06.652Z,14
2023-05-10T04:03:07.474Z,14
2023-05-10T04:04:08.467Z,13
2023-05-10T04:05:09.567Z,14
2023-05-10T04:06:10.508Z,14
2023-05-10T04:07:11.468Z,14
2023-05-10T04:08:12.847Z,15
2023-05-10T04:09:13.479Z,14
2023-05-10T04:10:14.730Z,15
2023-05-10T04:11:15.426Z,14
2023-05-10T04:12:16.482Z,13
2023-05-10T04:13:17.465Z,13
2023-05-10T04:14:18.599Z,15
2023-05-10T04:15:19.480Z,14
2023-05-10T04:16:20.620Z,14
2023-05-10T04:17:21.470Z,15
2023-05-10T04:18:22.518Z,14
2023-05-10T04:19:23.444Z,14
2023-05-10T04:20:24.464Z,15
2023-05-10T04:21:25.467Z,14
2023-05-10T04:22:26.521Z,15
2023-05-10T04:23:27.493Z,16
2023-05-10T04:24:28.491Z,16
2023-05-10T04:25:29.463Z,15
2023-05-10T04:26:30.483Z,15
2023-05-10T04:27:31.472Z,14
2023-05-10T04:28:32.510Z,14
2023-05-10T04:29:33.438Z,14
2023-05-10T04:30:34.441Z,14
2023-05-10T04:31:35.501Z,16
2023-05-10T04:32:36.551Z,15
2023-05-10T04:33:37.530Z,16
2023-05-10T04:34:38.469Z,15
2023-05-10T04:35:39.482Z,17
2023-05-10T04:36:40.481Z,15
2023-05-10T04:37:41.590Z,15
2023-05-10T04:38:42.535Z,16
2023-05-10T04:39:43.493Z,15
2023-05-10T04:40:44.501Z,14
2023-05-10T04:41:45.490Z,14
2023-05-10T04:42:46.560Z,15
2023-05-10T04:43:47.442Z,14
2023-05-10T04:44:48.520Z,14
2023-05-10T04:45:49.588Z,14
2023-05-10T04:46:50.528Z,14
2023-05-10T04:47:51.571Z,14
2023-05-10T04:48:52.626Z,15
2023-05-10T04:49:53.491Z,15
2023-05-10T04:50:54.552Z,15
2023-05-10T04:51:55.488Z,15
2023-05-10T04:52:56.528Z,15
2023-05-10T04:54:05.737Z,15
2023-05-10T04:54:58.495Z,16
2023-05-10T04:55:59.459Z,14
2023-05-10T04:57:00.519Z,15
2023-05-10T04:58:01.555Z,16
2023-05-10T04:59:02.511Z,16
2023-05-10T05:00:03.546Z,14
2023-05-10T05:01:04.502Z,15
2023-05-10T05:02:05.622Z,15
2023-05-10T05:03:06.574Z,15
2023-05-10T05:04:07.577Z,15
2023-05-10T05:05:08.549Z,15
2023-05-10T05:06:09.444Z,15
2023-05-10T05:07:10.522Z,15
2023-05-10T05:08:11.509Z,15
2023-05-10T05:09:13.067Z,15
2023-05-10T05:10:14.690Z,15
2023-05-10T05:11:15.502Z,15
2023-05-10T05:12:16.524Z,15
2023-05-10T05:13:17.531Z,15
2023-05-10T05:14:18.521Z,15
2023-05-10T05:15:19.561Z,15
2023-05-10T05:16:20.520Z,15
2023-05-10T05:17:21.520Z,15
2023-05-10T05:18:22.535Z,15
2023-05-10T05:19:23.528Z,15
2023-05-10T05:20:24.546Z,15
2023-05-10T05:21:25.623Z,15
2023-05-10T05:22:26.522Z,15
2023-05-10T05:23:27.545Z,15
2023-05-10T05:24:28.503Z,15
2023-05-10T05:25:29.440Z,15
2023-05-10T05:26:30.543Z,16
2023-05-10T05:27:31.505Z,16
2023-05-10T05:28:32.549Z,16
2023-05-10T05:29:33.488Z,16
2023-05-10T05:30:34.520Z,15
2023-05-10T05:31:35.598Z,16
2023-05-10T05:32:36.702Z,15
2023-05-10T05:33:37.469Z,16
2023-05-10T05:34:38.509Z,16
2023-05-10T05:35:39.621Z,15
2023-05-10T05:36:40.510Z,15
2023-05-10T05:37:41.581Z,15
2023-05-10T05:38:42.523Z,15
2023-05-10T05:39:43.500Z,16
2023-05-10T05:40:44.560Z,16
2023-05-10T05:41:45.563Z,15
2023-05-10T05:42:46.583Z,15
2023-05-10T05:43:47.525Z,15
2023-05-10T05:44:48.563Z,15
2023-05-10T05:45:49.577Z,15
2023-05-10T05:46:50.523Z,16
2023-05-10T05:47:51.563Z,16
2023-05-10T05:48:52.522Z,16
2023-05-10T05:49:53.522Z,16
2023-05-10T05:50:54.618Z,16
2023-05-10T05:51:55.504Z,15
2023-05-10T05:52:56.521Z,16
2023-05-10T05:53:57.543Z,16
2023-05-10T05:54:58.582Z,15
2023-05-10T05:55:59.540Z,16
2023-05-10T05:57:01.291Z,15
2023-05-10T05:58:01.596Z,15
2023-05-10T05:59:02.562Z,16
2023-05-10T06:01:09.529Z,17
2023-05-10T06:02:10.568Z,16
2023-05-10T06:03:11.638Z,16
2023-05-10T06:04:12.638Z,16
2023-05-10T06:05:13.582Z,16
2023-05-10T06:06:14.529Z,17
2023-05-10T06:07:15.563Z,17
2023-05-10T06:08:16.545Z,17
2023-05-10T06:09:17.726Z,16
2023-05-10T06:10:18.566Z,16
2023-05-10T06:11:19.562Z,16
2023-05-10T06:12:20.560Z,16
2023-05-10T06:13:21.634Z,16
2023-05-10T06:14:22.498Z,16
2023-05-10T06:15:23.545Z,16
2023-05-10T06:16:24.507Z,16
2023-05-10T06:17:25.604Z,16
2023-05-10T06:18:26.665Z,16
2023-05-10T06:19:27.590Z,17
2023-05-10T06:20:28.595Z,17
2023-05-10T06:21:29.495Z,17
2023-05-10T06:22:30.420Z,16
2023-05-10T06:23:31.506Z,16
2023-05-10T06:24:32.521Z,16
2023-05-10T06:25:33.548Z,16
2023-05-10T06:26:34.525Z,15
2023-05-10T06:27:35.483Z,16
2023-05-10T06:28:36.938Z,17
2023-05-10T06:29:38.643Z,16
2023-05-10T06:30:39.508Z,16
2023-05-10T06:31:40.611Z,16
2023-05-10T06:32:41.886Z,16
2023-05-10T06:33:42.543Z,17
2023-05-10T06:34:43.607Z,17
2023-05-10T06:35:44.536Z,16
2023-05-10T06:36:45.708Z,17
2023-05-10T06:37:46.584Z,16
2023-05-10T06:38:47.535Z,17
2023-05-10T06:39:48.544Z,16
2023-05-10T06:40:49.548Z,16
2023-05-10T06:41:50.542Z,17
2023-05-10T06:42:51.523Z,17
2023-05-10T06:43:52.543Z,17
2023-05-10T06:44:53.541Z,18
2023-05-10T06:45:54.581Z,18
2023-05-10T06:46:55.583Z,17
2023-05-10T06:47:56.552Z,17
2023-05-10T06:48:57.521Z,18
2023-05-10T06:49:58.577Z,18
2023-05-10T06:50:59.599Z,17
2023-05-10T06:52:00.543Z,17
2023-05-10T06:53:01.483Z,17
2023-05-10T06:54:02.570Z,17
2023-05-10T06:55:03.507Z,18
2023-05-10T06:56:04.612Z,17
2023-05-10T06:57:08.892Z,17
2023-05-10T06:58:06.660Z,18
2023-05-10T06:59:07.712Z,18
2023-05-10T07:00:08.574Z,17
2023-05-10T07:01:09.860Z,17
2023-05-10T07:02:11.715Z,17
2023-05-10T07:03:12.680Z,17
2023-05-10T07:04:13.546Z,16
2023-05-10T07:05:15.052Z,17
2023-05-10T07:06:25.688Z,18
2023-05-10T07:07:16.564Z,18
2023-05-10T07:08:17.581Z,18
2023-05-10T07:09:18.642Z,18
2023-05-10T07:10:19.556Z,19
2023-05-10T07:11:20.625Z,17
2023-05-10T07:12:21.648Z,17
2023-05-10T07:13:22.744Z,17
2023-05-10T07:14:23.586Z,18
2023-05-10T07:15:24.615Z,17
2023-05-10T07:16:25.561Z,17
2023-05-10T07:17:26.741Z,17
2023-05-10T07:18:27.629Z,17
2023-05-10T07:19:28.541Z,17
2023-05-10T07:20:29.575Z,17
2023-05-10T07:21:30.616Z,17
2023-05-10T07:22:31.533Z,17
2023-05-10T07:23:32.574Z,17
2023-05-10T07:24:33.570Z,17
2023-05-10T07:25:34.562Z,17
2023-05-10T07:26:35.563Z,18
2023-05-10T07:27:36.562Z,17
2023-05-10T07:28:37.541Z,18
2023-05-10T07:29:38.594Z,18
2023-05-10T07:30:39.722Z,17
2023-05-10T07:31:40.652Z,19
2023-05-10T07:32:41.609Z,19
2023-05-10T07:33:42.545Z,18
2023-05-10T07:34:43.601Z,18
2023-05-10T07:35:44.654Z,18
2023-05-10T07:36:45.694Z,18
2023-05-10T07:37:46.583Z,18
2023-05-10T07:38:47.549Z,18
2023-05-10T07:39:48.584Z,17
2023-05-10T07:40:49.526Z,18
2023-05-10T07:41:50.622Z,18
2023-05-10T07:42:51.632Z,18
2023-05-10T07:43:52.640Z,19
2023-05-10T07:44:53.566Z,19
2023-05-10T07:45:56.241Z,18
2023-05-10T07:46:55.592Z,19
2023-05-10T07:47:56.736Z,18
2023-05-10T07:48:57.561Z,17
2023-05-10T07:49:58.552Z,18
2023-05-10T07:50:59.631Z,19
2023-05-10T07:52:00.560Z,19
2023-05-10T07:53:01.565Z,20
2023-05-10T07:54:02.661Z,19
2023-05-10T07:55:03.537Z,20
2023-05-10T07:56:04.549Z,19
2023-05-10T07:57:05.660Z,20
2023-05-10T07:58:06.642Z,18
2023-05-10T07:59:07.549Z,18
2023-05-10T08:00:08.612Z,18
2023-05-10T08:01:09.604Z,18
2023-05-10T08:02:10.791Z,20
2023-05-10T08:03:11.728Z,20
2023-05-10T08:04:12.688Z,20
2023-05-10T08:05:13.639Z,19
2023-05-10T08:06:14.565Z,19
2023-05-10T08:07:15.540Z,19
2023-05-10T08:08:16.588Z,19
2023-05-10T08:09:17.596Z,19
2023-05-10T08:10:18.652Z,20
2023-05-10T08:11:19.580Z,19
2023-05-10T08:12:20.664Z,19
2023-05-10T08:13:21.512Z,19
2023-05-10T08:14:22.606Z,18
2023-05-10T08:15:23.692Z,19
2023-05-10T08:16:24.619Z,19
2023-05-10T08:17:25.678Z,19
2023-05-10T08:18:26.608Z,22
2023-05-10T08:19:27.548Z,22
2023-05-10T08:20:28.549Z,18
2023-05-10T08:21:29.609Z,18
2023-05-10T08:22:30.818Z,19
2023-05-10T08:23:31.567Z,19
2023-05-10T08:24:32.697Z,19
2023-05-10T08:25:33.604Z,19
2023-05-10T08:26:34.638Z,20
2023-05-10T08:27:35.594Z,22
2023-05-10T08:28:36.617Z,19
2023-05-10T08:29:46.552Z,20
2023-05-10T08:30:39.607Z,19
2023-05-10T08:31:40.700Z,19
2023-05-10T08:32:41.709Z,22
2023-05-10T08:33:44.488Z,20
2023-05-10T08:34:43.568Z,20
2023-05-10T08:35:44.579Z,20
2023-05-10T08:36:45.763Z,19
2023-05-10T08:37:46.643Z,19
2023-05-10T08:38:48.167Z,19
2023-05-10T08:39:48.672Z,20
2023-05-10T08:40:49.525Z,20
2023-05-10T08:41:50.596Z,20
2023-05-10T08:42:51.668Z,20
2023-05-10T08:43:52.587Z,22
2023-05-10T08:44:53.578Z,23
2023-05-10T08:45:54.562Z,20
2023-05-10T08:46:55.697Z,19
2023-05-10T08:47:56.626Z,20
2023-05-10T08:48:57.630Z,20
2023-05-10T08:49:58.604Z,19
2023-05-10T08:50:59.600Z,19
2023-05-10T08:52:00.722Z,18
2023-05-10T08:53:01.542Z,20
2023-05-10T08:54:02.615Z,20
2023-05-10T08:55:03.663Z,19
2023-05-10T08:56:04.744Z,19
2023-05-10T08:57:05.771Z,19
2023-05-10T08:58:06.648Z,19
2023-05-10T08:59:07.680Z,20
2023-05-10T09:00:08.718Z,19
2023-05-10T09:01:09.716Z,22
2023-05-10T09:02:10.646Z,-1
2023-05-10T09:03:11.671Z,22
2023-05-10T09:04:12.804Z,20
2023-05-10T09:05:13.678Z,20
2023-05-10T09:06:14.607Z,20
2023-05-10T09:07:15.842Z,20
2023-05-10T09:08:16.588Z,20
2023-05-10T09:09:17.658Z,20
2023-05-10T09:10:18.621Z,19
2023-05-10T09:11:19.620Z,20
2023-05-10T09:12:20.721Z,22
2023-05-10T09:13:21.700Z,22
2023-05-10T09:14:23.104Z,23
2023-05-10T09:15:24.674Z,22
2023-05-10T09:16:25.774Z,20
2023-05-10T09:17:26.837Z,22
2023-05-10T09:18:28.221Z,22
2023-05-10T09:19:28.806Z,22
2023-05-10T09:20:29.620Z,20
2023-05-10T09:21:30.579Z,20
2023-05-10T09:22:31.721Z,20
2023-05-10T09:23:32.662Z,20
2023-05-10T09:24:33.720Z,22
2023-05-10T09:25:34.634Z,20
2023-05-10T09:26:35.640Z,22
2023-05-10T09:27:36.742Z,23
2023-05-10T09:28:37.706Z,22
2023-05-10T09:29:38.739Z,22
2023-05-10T09:30:39.781Z,24
2023-05-10T09:31:40.640Z,20
2023-05-10T09:32:41.840Z,19
2023-05-10T09:33:42.749Z,20
2023-05-10T09:34:43.625Z,22
2023-05-10T09:35:44.669Z,22
2023-05-10T09:36:45.734Z,20
2023-05-10T09:37:46.691Z,20
2023-05-10T09:38:47.604Z,22
2023-05-10T09:39:48.703Z,22
2023-05-10T09:40:49.621Z,22
2023-05-10T09:41:50.678Z,22
2023-05-10T09:42:51.847Z,23
2023-05-10T09:43:52.638Z,23
2023-05-10T09:44:53.583Z,23
2023-05-10T09:45:54.711Z,23
2023-05-10T09:46:55.630Z,22
2023-05-10T09:47:56.681Z,23
2023-05-10T09:48:57.640Z,23
2023-05-10T09:49:58.661Z,22
2023-05-10T09:50:59.687Z,22
2023-05-10T09:52:00.691Z,22
2023-05-10T09:53:01.693Z,22
2023-05-10T09:54:02.649Z,23
2023-05-10T09:55:03.665Z,24
2023-05-10T09:56:04.803Z,24
2023-05-10T09:57:05.741Z,23
2023-05-10T09:58:06.723Z,23
2023-05-10T09:59:07.716Z,23
2023-05-10T10:00:08.742Z,23
2023-05-10T10:01:09.707Z,23
2023-05-10T10:02:10.650Z,23
2023-05-10T10:03:11.807Z,23
2023-05-10T10:04:12.743Z,22
2023-05-10T10:05:13.797Z,24
2023-05-10T10:06:22.849Z,24
2023-05-10T10:07:15.796Z,24
2023-05-10T10:08:17.116Z,23
2023-05-10T10:09:18.732Z,24
2023-05-10T10:10:19.746Z,25
2023-05-10T10:11:20.639Z,23
2023-05-10T10:12:21.664Z,23
2023-05-10T10:13:22.648Z,23
2023-05-10T10:14:23.597Z,24
2023-05-10T10:15:24.742Z,24
2023-05-10T10:16:26.036Z,24
2023-05-10T10:17:26.708Z,23
2023-05-10T10:18:27.753Z,23
2023-05-10T10:19:28.588Z,23
2023-05-10T10:20:29.720Z,24
2023-05-10T10:21:30.662Z,24
2023-05-10T10:22:31.625Z,24
2023-05-10T10:23:32.682Z,26
2023-05-10T10:24:33.592Z,23
2023-05-10T10:25:34.748Z,23
2023-05-10T10:26:35.715Z,24
2023-05-10T10:27:36.922Z,23
2023-05-10T10:28:37.656Z,23
2023-05-10T10:29:38.642Z,24
2023-05-10T10:30:39.703Z,24
2023-05-10T10:31:40.746Z,25
2023-05-10T10:32:41.690Z,25
2023-05-10T10:33:42.731Z,23
2023-05-10T10:34:43.642Z,23
2023-05-10T10:35:44.703Z,24
2023-05-10T10:36:45.862Z,23
2023-05-10T10:37:46.702Z,22
2023-05-10T10:38:47.802Z,22
2023-05-10T10:39:48.763Z,23
2023-05-10T10:40:49.785Z,24
2023-05-10T10:41:50.704Z,24
2023-05-10T10:42:51.683Z,24
2023-05-10T10:43:52.742Z,23
2023-05-10T10:44:53.735Z,23
2023-05-10T10:45:55.263Z,23
2023-05-10T10:46:56.823Z,23
2023-05-10T10:47:57.723Z,22
2023-05-10T10:48:58.723Z,23
2023-05-10T10:49:59.742Z,24
2023-05-10T10:51:00.743Z,24
2023-05-10T10:52:01.710Z,25
2023-05-10T10:53:02.695Z,24
2023-05-10T10:54:03.820Z,24
2023-05-10T10:55:04.682Z,24
2023-05-10T10:56:05.779Z,25
2023-05-10T10:57:06.712Z,24
2023-05-10T10:58:07.690Z,25
2023-05-10T10:59:08.698Z,24
2023-05-10T11:00:09.811Z,24
2023-05-10T11:01:10.791Z,25
2023-05-10T11:02:11.692Z,24
2023-05-10T11:03:12.730Z,24
2023-05-10T11:04:14.038Z,24
2023-05-10T11:05:15.004Z,24
2023-05-10T11:06:15.607Z,23
2023-05-10T11:07:16.707Z,24
2023-05-10T11:08:17.693Z,24
2023-05-10T11:09:18.734Z,23
2023-05-10T11:10:19.668Z,23
2023-05-10T11:11:20.709Z,24
2023-05-10T11:12:21.745Z,24
2023-05-10T11:13:22.699Z,24
2023-05-10T11:14:23.720Z,24
2023-05-10T11:15:24.743Z,24
2023-05-10T11:16:25.793Z,25
2023-05-10T11:17:26.776Z,25
2023-05-10T11:18:27.921Z,25
2023-05-10T11:19:28.725Z,25
2023-05-10T11:20:29.684Z,25
2023-05-10T11:21:30.699Z,24
2023-05-10T11:22:31.735Z,26
2023-05-10T11:23:32.651Z,25
2023-05-10T11:24:33.733Z,23
2023-05-10T11:25:34.683Z,25
2023-05-10T11:26:35.690Z,24
2023-05-10T11:27:37.886Z,24
2023-05-10T11:28:39.719Z,25
2023-05-10T11:29:40.720Z,26
2023-05-10T11:30:41.774Z,25
2023-05-10T11:31:42.759Z,24
2023-05-10T11:32:43.964Z,24
2023-05-10T11:33:44.765Z,26
2023-05-10T11:34:45.779Z,25
2023-05-10T11:35:46.719Z,24
2023-05-10T11:36:47.675Z,25
2023-05-10T11:37:48.794Z,26
2023-05-10T11:38:49.672Z,26
2023-05-10T11:39:50.723Z,26
2023-05-10T11:40:51.695Z,26
2023-05-10T11:41:52.768Z,25
2023-05-10T11:42:53.815Z,25
2023-05-10T11:43:54.739Z,25
2023-05-10T11:44:55.689Z,24
2023-05-10T11:45:56.616Z,27
2023-05-10T11:46:57.692Z,24
2023-05-10T11:47:59.237Z,24
2023-05-10T11:49:00.802Z,24
2023-05-10T11:50:01.746Z,26
2023-05-10T11:51:02.810Z,24
2023-05-10T11:52:03.768Z,25
2023-05-10T11:53:04.696Z,25
2023-05-10T11:54:06.034Z,25
2023-05-10T11:55:07.850Z,24
2023-05-10T11:56:08.706Z,24
2023-05-10T11:57:09.750Z,24
2023-05-10T11:58:10.737Z,25
2023-05-10T11:59:11.731Z,25
2023-05-10T12:00:12.731Z,25
2023-05-10T12:01:13.899Z,25
2023-05-10T12:02:14.951Z,24
2023-05-10T12:03:15.904Z,23
2023-05-10T12:04:16.981Z,23
2023-05-10T12:05:17.666Z,23
2023-05-10T12:06:18.699Z,23
2023-05-10T12:07:19.680Z,24
2023-05-10T12:08:20.804Z,24
2023-05-10T12:09:31.825Z,23
2023-05-10T12:10:22.812Z,25
2023-05-10T12:11:23.739Z,23
2023-05-10T12:12:24.702Z,24
2023-05-10T12:13:25.759Z,23
2023-05-10T12:14:26.738Z,24
2023-05-10T12:15:27.759Z,22
2023-05-10T12:16:28.706Z,22
2023-05-10T12:17:29.714Z,22
2023-05-10T12:18:30.752Z,24
2023-05-10T12:19:31.882Z,25
2023-05-10T12:20:32.729Z,24
2023-05-10T12:21:33.750Z,24
2023-05-10T12:22:34.914Z,24
2023-05-10T12:23:35.997Z,24
2023-05-10T12:24:37.947Z,23
2023-05-10T12:25:39.888Z,25
2023-05-10T12:28:12.837Z,23
2023-05-10T12:29:13.924Z,23
2023-05-10T12:30:14.977Z,24
2023-05-10T12:31:15.857Z,24
2023-05-10T12:32:16.753Z,23
2023-05-10T12:33:17.704Z,23
2023-05-10T12:34:18.821Z,24
2023-05-10T12:35:19.843Z,24
2023-05-10T12:36:20.841Z,24
2023-05-10T12:37:21.747Z,24
2023-05-10T12:38:22.841Z,23
2023-05-10T12:39:23.902Z,24
2023-05-10T12:40:24.702Z,25
2023-05-10T12:41:25.887Z,24
2023-05-10T12:42:26.716Z,25
2023-05-10T12:43:27.699Z,24
2023-05-10T12:44:28.812Z,24
2023-05-10T12:45:29.721Z,30
2023-05-10T12:46:30.853Z,24
2023-05-10T12:47:31.785Z,24
2023-05-10T12:48:32.768Z,26
2023-05-10T12:49:33.799Z,25
2023-05-10T12:50:34.671Z,25
2023-05-10T12:51:35.696Z,25
2023-05-10T12:52:36.680Z,25
2023-05-10T12:53:37.749Z,25
2023-05-10T12:54:38.765Z,24
2023-05-10T12:55:39.733Z,24
2023-05-10T12:56:40.817Z,24
2023-05-10T12:57:41.778Z,25
2023-05-10T12:58:42.832Z,24
2023-05-10T12:59:43.722Z,24
2023-05-10T13:00:44.736Z,25
2023-05-10T13:01:46.013Z,23
2023-05-10T13:02:46.774Z,23
2023-05-10T13:03:47.809Z,24
2023-05-10T13:04:50.281Z,24
2023-05-10T13:05:49.687Z,24
2023-05-10T13:06:50.683Z,23
2023-05-10T13:07:51.690Z,23
2023-05-10T13:08:52.825Z,23
2023-05-10T13:09:53.806Z,24
2023-05-10T13:10:54.747Z,23
2023-05-10T13:11:55.794Z,25
2023-05-10T13:12:56.730Z,24
2023-05-10T13:13:57.747Z,24
2023-05-10T13:14:58.831Z,26
2023-05-10T13:15:59.750Z,26
2023-05-10T13:17:00.856Z,25
2023-05-10T13:18:01.813Z,26
2023-05-10T13:19:02.852Z,24
2023-05-10T13:20:03.775Z,24
2023-05-10T13:21:04.714Z,26
2023-05-10T13:22:05.787Z,25
2023-05-10T13:23:06.752Z,24
2023-05-10T13:24:07.747Z,25
2023-05-10T13:25:08.809Z,24
2023-05-10T13:26:09.731Z,24
2023-05-10T13:27:10.748Z,23
2023-05-10T13:28:11.708Z,24
2023-05-10T13:29:12.698Z,24
2023-05-10T13:30:14.174Z,23
2023-05-10T13:31:14.816Z,23
2023-05-10T13:32:15.758Z,23
2023-05-10T13:33:17.295Z,23
2023-05-10T13:34:19.153Z,23
2023-05-10T13:35:20.878Z,22
2023-05-10T13:36:21.761Z,22
2023-05-10T13:37:23.151Z,22
2023-05-10T13:38:24.742Z,23
2023-05-10T13:39:25.805Z,23
2023-05-10T13:40:26.887Z,23
2023-05-10T13:41:27.813Z,23
2023-05-10T13:42:28.782Z,23
2023-05-10T13:43:29.726Z,22
2023-05-10T13:44:30.703Z,23
2023-05-10T13:45:31.760Z,23
2023-05-10T13:46:32.988Z,24
2023-05-10T13:47:34.022Z,23
2023-05-10T13:48:36.850Z,23
2023-05-10T13:49:35.763Z,23
2023-05-10T13:50:36.783Z,20
2023-05-10T13:51:37.872Z,22
2023-05-10T13:52:38.743Z,22
2023-05-10T13:53:39.752Z,22
2023-05-10T13:54:40.781Z,20
2023-05-10T13:55:41.756Z,20
2023-05-10T13:56:42.760Z,22
2023-05-10T13:57:43.804Z,22
2023-05-10T13:58:44.777Z,22
2023-05-10T13:59:45.802Z,22
2023-05-10T14:00:46.784Z,22
2023-05-10T14:01:47.787Z,22
2023-05-10T14:02:49.142Z,23
2023-05-10T14:03:49.905Z,23
2023-05-10T14:04:50.752Z,23
2023-05-10T14:05:51.836Z,23
2023-05-10T14:06:52.726Z,24
2023-05-10T14:07:53.790Z,23
2023-05-10T14:08:54.769Z,24
2023-05-10T14:09:55.870Z,23
2023-05-10T14:10:56.789Z,23
2023-05-10T14:11:57.897Z,22
2023-05-10T14:12:58.782Z,22
2023-05-10T14:13:59.733Z,22
2023-05-10T14:15:00.738Z,22
2023-05-10T14:16:01.868Z,23
2023-05-10T14:17:05.883Z,23
2023-05-10T14:18:06.806Z,23
2023-05-10T14:19:07.966Z,23
2023-05-10T14:20:08.855Z,24
2023-05-10T14:21:09.870Z,23
2023-05-10T14:22:10.732Z,24
2023-05-10T14:23:12.136Z,20
2023-05-10T14:24:12.747Z,23
2023-05-10T14:25:14.089Z,22
2023-05-10T14:26:14.824Z,23
2023-05-10T14:27:15.834Z,23
2023-05-10T14:28:16.934Z,22
2023-05-10T14:29:17.851Z,22
2023-05-10T14:30:18.806Z,22
2023-05-10T14:31:19.806Z,22
2023-05-10T14:32:20.794Z,22
2023-05-10T14:33:21.819Z,22
2023-05-10T14:34:22.861Z,22
2023-05-10T14:35:24.052Z,23